createdAt,value
2023-03-07T00:01:03.104Z,4.72
2023-03-07T00:03:29.667Z,4.73
2023-03-07T00:06:07.552Z,4.71
2023-03-07T00:08:35.034Z,4.73
2023-03-07T00:11:07.463Z,4.71
2023-03-07T00:13:35.897Z,4.74
2023-03-07T00:16:04.390Z,4.74
2023-03-07T00:18:31.500Z,4.74
2023-03-07T00:21:05.875Z,4.73
2023-03-07T00:23:33.455Z,4.77
2023-03-07T00:26:12.636Z,4.77
2023-03-07T00:28:39.464Z,4.80
2023-03-07T00:31:08.713Z,4.80
2023-03-07T00:33:35.664Z,4.82
2023-03-07T00:36:07.530Z,4.86
2023-03-07T00:38:34.704Z,4.87
2023-03-07T00:41:12.348Z,4.88
2023-03-07T00:43:39.753Z,4.92
2023-03-07T00:46:06.721Z,4.96
2023-03-07T00:48:35.440Z,4.97
2023-03-07T00:53:40.855Z,5.03
2023-03-07T00:56:12.944Z,5.04
2023-03-07T00:58:39.734Z,5.07
2023-03-07T01:01:07.716Z,5.13
2023-03-07T01:03:34.921Z,5.15
2023-03-07T01:06:07.039Z,5.17
2023-03-07T01:08:34.090Z,5.21
2023-03-07T01:11:02.876Z,5.24
2023-03-07T01:13:30.244Z,5.28
2023-03-07T01:16:06.684Z,5.30
2023-03-07T01:18:33.119Z,5.33
2023-03-07T01:20:59.654Z,5.35
2023-03-07T01:23:26.181Z,5.39
2023-03-07T01:25:52.709Z,5.40
2023-03-07T01:28:19.210Z,5.41
2023-03-07T01:30:45.794Z,5.45
2023-03-07T01:33:12.227Z,5.48
2023-03-07T01:35:39.859Z,5.49
2023-03-07T01:38:06.882Z,5.53
2023-03-07T01:40:33.458Z,5.56
2023-03-07T01:43:31.919Z,5.55
2023-03-07T01:46:17.137Z,5.58
2023-03-07T01:49:09.451Z,5.61
2023-03-07T01:51:38.114Z,5.68
2023-03-07T01:54:08.213Z,5.69
2023-03-07T01:56:37.549Z,5.73
2023-03-07T01:59:04.761Z,5.77
2023-03-07T02:01:32.148Z,5.82
2023-03-07T02:04:06.261Z,5.84
2023-03-07T02:06:36.892Z,5.88
2023-03-07T02:09:06.031Z,5.92
2023-03-07T02:11:32.847Z,5.94
2023-03-07T02:13:59.331Z,5.96
2023-03-07T02:16:26.044Z,6.00
2023-03-07T02:18:52.612Z,6.02
2023-03-07T02:21:30.880Z,6.00
2023-03-07T02:24:11.673Z,6.02
2023-03-07T02:26:44.014Z,6.05
2023-03-07T02:29:12.403Z,6.05
2023-03-07T02:31:39.062Z,6.05
2023-03-07T02:34:21.824Z,6.04
2023-03-07T02:36:53.224Z,6.07
2023-03-07T02:39:22.000Z,6.07
2023-03-07T02:41:50.474Z,6.08
2023-03-07T02:44:16.946Z,6.08
2023-03-07T02:46:43.530Z,6.07
2023-03-07T02:49:10.119Z,6.07
2023-03-07T02:51:36.697Z,6.07
2023-03-07T02:54:03.250Z,6.05
2023-03-07T02:56:29.838Z,6.04
2023-03-07T02:58:56.348Z,6.01
2023-03-07T03:01:23.064Z,6.02
2023-03-07T03:03:49.591Z,6.01
2023-03-07T03:06:16.066Z,6.02
2023-03-07T03:08:42.563Z,6.02
2023-03-07T03:11:09.112Z,6.02
2023-03-07T03:13:37.172Z,6.02
2023-03-07T03:16:05.425Z,6.03
2023-03-07T03:18:32.290Z,6.04
2023-03-07T03:20:59.322Z,6.04
2023-03-07T03:23:28.916Z,6.01
2023-03-07T03:26:07.803Z,5.97
2023-03-07T03:28:36.008Z,5.93
2023-03-07T03:31:08.976Z,5.84
2023-03-07T03:33:35.451Z,5.76
2023-03-07T03:36:07.776Z,5.69
2023-03-07T03:38:34.446Z,5.64
2023-03-07T03:41:08.687Z,5.53
2023-03-07T03:43:35.325Z,5.49
2023-03-07T03:46:01.891Z,5.44
2023-03-07T03:48:28.778Z,5.42
2023-03-07T03:51:06.053Z,5.38
2023-03-07T03:53:34.142Z,5.38
2023-03-07T03:56:07.926Z,5.36
2023-03-07T03:58:35.713Z,5.38
2023-03-07T04:01:05.796Z,5.36
2023-03-07T04:03:37.770Z,5.35
2023-03-07T04:06:06.906Z,5.35
2023-03-07T04:08:34.445Z,5.37
2023-03-07T04:11:01.297Z,5.38
2023-03-07T04:13:28.079Z,5.38
2023-03-07T04:15:54.599Z,5.39
2023-03-07T04:18:22.710Z,5.40
2023-03-07T04:20:50.367Z,5.39
2023-03-07T04:23:21.537Z,5.40
2023-03-07T04:25:56.603Z,5.41
2023-03-07T04:28:43.503Z,5.42
2023-03-07T04:31:11.785Z,5.47
2023-03-07T04:33:38.276Z,5.50
2023-03-07T04:36:05.572Z,5.51
2023-03-07T04:38:32.155Z,5.53
2023-03-07T04:40:58.947Z,5.54
2023-03-07T04:43:25.430Z,5.56
2023-03-07T04:45:52.959Z,5.57
2023-03-07T04:48:20.121Z,5.59
2023-03-07T04:50:50.160Z,5.59
2023-03-07T04:53:17.575Z,5.61
2023-03-07T04:55:44.531Z,5.64
2023-03-07T04:58:13.078Z,5.66
2023-03-07T05:00:41.217Z,5.65
2023-03-07T05:03:09.714Z,5.67
2023-03-07T05:05:37.690Z,5.70
2023-03-07T05:08:05.434Z,5.69
2023-03-07T05:10:33.894Z,5.73
2023-03-07T05:13:01.190Z,5.73
2023-03-07T05:15:27.884Z,5.75
2023-03-07T05:17:54.380Z,5.77
2023-03-07T05:20:21.073Z,5.77
2023-03-07T05:22:47.674Z,5.79
2023-03-07T05:25:14.158Z,5.79
2023-03-07T05:27:40.856Z,5.77
2023-03-07T05:30:08.237Z,5.77
2023-03-07T05:32:35.131Z,5.77
2023-03-07T05:35:02.061Z,5.76
2023-03-07T05:37:28.690Z,5.76
2023-03-07T05:39:55.179Z,5.75
2023-03-07T05:42:21.673Z,5.76
2023-03-07T05:44:48.337Z,5.73
2023-03-07T05:47:14.883Z,5.71
2023-03-07T05:49:41.553Z,5.69
2023-03-07T05:52:08.133Z,5.68
2023-03-07T05:54:34.647Z,5.66
2023-03-07T05:57:01.228Z,5.66
2023-03-07T05:59:27.853Z,5.64
2023-03-07T06:01:54.397Z,5.62
2023-03-07T06:04:21.003Z,5.59
2023-03-07T06:06:47.513Z,5.57
2023-03-07T06:09:14.120Z,5.54
2023-03-07T06:11:40.657Z,5.49
2023-03-07T06:14:07.165Z,5.48
2023-03-07T06:16:34.127Z,5.46
2023-03-07T06:19:00.736Z,5.43
2023-03-07T06:21:27.376Z,5.40
2023-03-07T06:23:53.929Z,5.39
2023-03-07T06:26:20.576Z,5.37
2023-03-07T06:28:47.149Z,5.37
2023-03-07T06:31:16.611Z,5.35
2023-03-07T06:33:43.933Z,5.34
2023-03-07T06:36:13.226Z,5.34
2023-03-07T06:38:41.020Z,5.34
2023-03-07T06:41:07.940Z,5.36
2023-03-07T06:43:34.787Z,5.36
2023-03-07T06:46:01.642Z,5.38
2023-03-07T06:48:28.291Z,5.38
2023-03-07T06:50:54.862Z,5.40
2023-03-07T06:53:21.384Z,5.40
2023-03-07T06:55:50.606Z,5.39
2023-03-07T06:58:17.859Z,5.38
2023-03-07T07:00:44.865Z,5.36
2023-03-07T07:03:15.413Z,5.31
2023-03-07T07:05:41.970Z,5.28
2023-03-07T07:08:09.264Z,5.24
2023-03-07T07:10:36.771Z,5.19
2023-03-07T07:13:04.591Z,5.13
2023-03-07T07:15:32.109Z,5.07
2023-03-07T07:17:58.567Z,5.03
2023-03-07T07:20:24.976Z,4.97
2023-03-07T07:22:51.536Z,4.92
2023-03-07T07:25:18.082Z,4.86
2023-03-07T07:27:44.421Z,4.81
2023-03-07T07:30:11.423Z,4.78
2023-03-07T07:32:37.988Z,4.73
2023-03-07T07:35:05.034Z,4.69
2023-03-07T07:37:31.499Z,4.67
2023-03-07T07:39:57.942Z,4.63
2023-03-07T07:42:24.462Z,4.59
2023-03-07T07:44:51.349Z,4.57
2023-03-07T07:47:17.849Z,4.54
2023-03-07T07:49:44.366Z,4.52
2023-03-07T07:52:10.850Z,4.52
2023-03-07T07:54:37.397Z,4.52
2023-03-07T07:57:03.959Z,4.52
2023-03-07T07:59:31.766Z,4.53
2023-03-07T08:01:58.390Z,4.53
2023-03-07T08:04:25.312Z,4.55
2023-03-07T08:06:52.285Z,4.56
2023-03-07T08:09:19.223Z,4.55
2023-03-07T08:11:45.744Z,4.56
2023-03-07T08:14:12.272Z,4.56
2023-03-07T08:16:38.697Z,4.56
2023-03-07T08:19:05.124Z,4.57
2023-03-07T08:21:31.582Z,4.56
2023-03-07T08:23:58.211Z,4.56
2023-03-07T08:26:24.700Z,4.54
2023-03-07T08:28:51.414Z,4.55
2023-03-07T08:31:20.577Z,4.51
2023-03-07T08:33:47.426Z,4.49
2023-03-07T08:36:14.175Z,4.47
2023-03-07T08:38:40.779Z,4.44
2023-03-07T08:41:08.476Z,4.39
2023-03-07T08:43:37.030Z,4.36
2023-03-07T08:46:04.250Z,4.36
2023-03-07T08:48:30.927Z,4.34
2023-03-07T08:50:57.618Z,4.33
2023-03-07T08:53:24.216Z,4.32
2023-03-07T08:55:50.809Z,4.32
2023-03-07T08:58:17.299Z,4.31
2023-03-07T09:00:43.788Z,4.31
2023-03-07T09:03:10.233Z,4.32
2023-03-07T09:05:38.797Z,4.30
2023-03-07T09:08:06.787Z,4.30
2023-03-07T09:10:34.116Z,4.31
2023-03-07T09:13:01.031Z,4.30
2023-03-07T09:15:27.661Z,4.31
2023-03-07T09:17:54.260Z,4.33
2023-03-07T09:20:20.960Z,4.35
2023-03-07T09:22:47.498Z,4.37
2023-03-07T09:25:14.713Z,4.42
2023-03-07T09:27:41.256Z,4.46
2023-03-07T09:30:08.484Z,4.50
2023-03-07T09:32:35.107Z,4.53
2023-03-07T09:35:01.575Z,4.55
2023-03-07T09:37:28.023Z,4.59
2023-03-07T09:39:54.449Z,4.61
2023-03-07T09:42:54.125Z,4.61
2023-03-07T09:45:45.876Z,4.65
2023-03-07T09:48:30.733Z,4.70
2023-03-07T09:51:21.381Z,4.68
2023-03-07T09:53:59.031Z,4.68
2023-03-07T09:56:32.659Z,4.71
2023-03-07T09:59:23.974Z,4.70
2023-03-07T10:02:04.143Z,4.74
2023-03-07T10:05:23.198Z,4.74
2023-03-07T10:07:50.062Z,4.78
2023-03-07T10:10:24.279Z,4.77
2023-03-07T10:13:24.196Z,4.74
2023-03-07T10:16:00.593Z,4.80
2023-03-07T10:18:48.676Z,4.82
2023-03-07T10:21:33.143Z,4.91
2023-03-07T10:24:14.917Z,4.95
2023-03-07T10:27:04.407Z,5.01
2023-03-07T10:29:49.333Z,5.07
2023-03-07T10:32:39.734Z,5.15
2023-03-07T10:35:12.118Z,5.21
2023-03-07T10:37:50.392Z,5.28
2023-03-07T10:40:23.431Z,5.36
2023-03-07T10:42:49.860Z,5.44
2023-03-07T10:45:17.117Z,5.54
2023-03-07T10:47:43.794Z,5.56
2023-03-07T10:50:24.077Z,5.58
2023-03-07T10:53:03.231Z,5.63
2023-03-07T10:55:41.658Z,5.67
2023-03-07T10:58:21.724Z,5.71
2023-03-07T11:01:03.748Z,5.74
2023-03-07T11:03:51.876Z,5.77
2023-03-07T11:06:34.350Z,5.79
2023-03-07T11:09:46.030Z,5.81
2023-03-07T11:12:18.909Z,5.88
2023-03-07T11:14:52.746Z,5.91
2023-03-07T11:17:23.294Z,5.98
2023-03-07T11:19:57.196Z,6.03
2023-03-07T11:22:33.967Z,6.12
2023-03-07T11:25:08.316Z,6.21
2023-03-07T11:27:56.060Z,6.25
2023-03-07T11:31:05.194Z,6.31
2023-03-07T11:33:49.462Z,6.36
2023-03-07T11:36:32.582Z,6.36
2023-03-07T11:39:11.250Z,6.37
2023-03-07T11:41:42.465Z,6.35
2023-03-07T11:44:22.225Z,6.30
2023-03-07T11:46:48.719Z,6.33
2023-03-07T11:49:24.305Z,6.31
2023-03-07T11:52:01.352Z,6.34
2023-03-07T11:54:49.248Z,6.36
2023-03-07T11:57:48.080Z,6.39
2023-03-07T12:00:19.415Z,6.43
2023-03-07T12:02:58.046Z,6.43
2023-03-07T12:05:47.064Z,6.45
2023-03-07T12:08:38.122Z,6.47
2023-03-07T12:11:21.811Z,6.48
2023-03-07T12:13:56.172Z,6.48
2023-03-07T12:16:38.601Z,6.47
2023-03-07T12:19:11.072Z,6.48
2023-03-07T12:21:46.404Z,6.49
2023-03-07T12:24:39.811Z,6.43
2023-03-07T12:27:19.695Z,6.45
2023-03-07T12:30:05.384Z,6.43
2023-03-07T12:32:36.283Z,6.42
2023-03-07T12:35:26.770Z,6.38
2023-03-07T12:38:08.820Z,6.37
2023-03-07T12:40:45.136Z,6.39
2023-03-07T12:43:23.700Z,6.39
2023-03-07T12:46:03.355Z,6.38
2023-03-07T12:48:48.796Z,6.41
2023-03-07T12:51:28.164Z,6.43
2023-03-07T12:54:03.732Z,6.46
2023-03-07T12:56:52.772Z,6.45
2023-03-07T12:59:20.637Z,6.50
2023-03-07T13:01:52.146Z,6.51
2023-03-07T13:04:30.849Z,6.54
2023-03-07T13:07:07.242Z,6.55
2023-03-07T13:09:34.581Z,6.58
2023-03-07T13:12:24.031Z,6.58
2023-03-07T13:14:52.963Z,6.61
2023-03-07T13:17:41.661Z,6.58
2023-03-07T13:20:19.783Z,6.57
2023-03-07T13:22:46.110Z,6.57
2023-03-07T13:25:33.282Z,6.46
2023-03-07T13:28:01.799Z,6.39
2023-03-07T13:30:32.676Z,6.30
2023-03-07T13:33:01.661Z,6.20
2023-03-07T13:35:30.740Z,6.11
2023-03-07T13:38:15.522Z,6.03
2023-03-07T13:40:44.732Z,5.99
2023-03-07T13:43:24.904Z,5.94
2023-03-07T13:45:54.006Z,5.97
2023-03-07T13:48:20.358Z,5.98
2023-03-07T13:50:53.194Z,5.98
2023-03-07T13:53:29.887Z,6.01
2023-03-07T13:56:13.047Z,6.05
2023-03-07T13:58:44.605Z,6.12
2023-03-07T14:01:24.746Z,6.21
2023-03-07T14:03:54.173Z,6.29
2023-03-07T14:06:28.268Z,6.36
2023-03-07T14:08:55.088Z,6.40
2023-03-07T14:11:33.414Z,6.37
2023-03-07T14:14:08.867Z,6.38
2023-03-07T14:16:47.048Z,6.34
2023-03-07T14:19:43.194Z,6.30
2023-03-07T14:22:30.831Z,6.28
2023-03-07T14:25:20.179Z,6.22
2023-03-07T14:28:01.569Z,6.20
2023-03-07T14:30:33.584Z,6.14
2023-03-07T14:33:01.563Z,6.12
2023-03-07T14:35:43.490Z,6.08
2023-03-07T14:38:19.856Z,6.08
2023-03-07T14:41:25.167Z,6.07
2023-03-07T14:44:19.399Z,6.09
2023-03-07T14:47:01.273Z,6.06
2023-03-07T14:49:39.770Z,6.07
2023-03-07T14:52:21.481Z,6.04
2023-03-07T14:54:56.567Z,6.05
2023-03-07T14:57:31.140Z,6.02
2023-03-07T15:00:09.761Z,6.01
2023-03-07T15:02:36.208Z,6.04
2023-03-07T15:05:03.937Z,6.03
2023-03-07T15:07:30.277Z,6.00
2023-03-07T15:09:56.617Z,5.95
2023-03-07T15:12:27.667Z,5.89
2023-03-07T15:15:01.685Z,5.83
2023-03-07T15:17:33.937Z,5.77
2023-03-07T15:20:14.905Z,5.71
2023-03-07T15:22:42.274Z,5.70
2023-03-07T15:25:22.358Z,5.63
2023-03-07T15:28:02.379Z,5.57
2023-03-07T15:30:32.895Z,5.54
2023-03-07T15:33:20.511Z,5.49
2023-03-07T15:36:07.350Z,5.40
2023-03-07T15:38:34.921Z,5.40
2023-03-07T15:41:01.297Z,5.37
2023-03-07T15:43:34.606Z,5.32
2023-03-07T15:46:15.445Z,5.28
2023-03-07T15:48:51.674Z,5.25
2023-03-07T15:51:21.470Z,5.24
2023-03-07T15:54:00.378Z,5.20
2023-03-07T15:56:40.520Z,5.16
2023-03-07T15:59:24.412Z,5.09
2023-03-07T16:01:50.773Z,5.05
2023-03-07T16:04:32.447Z,4.98
2023-03-07T16:06:59.143Z,4.96
2023-03-07T16:09:25.510Z,4.92
2023-03-07T16:11:52.351Z,4.89
2023-03-07T16:14:30.698Z,4.86
2023-03-07T16:17:00.293Z,4.83
2023-03-07T16:19:27.199Z,4.82
2023-03-07T16:21:53.950Z,4.81
2023-03-07T16:24:20.427Z,4.79
2023-03-07T16:26:47.248Z,4.76
2023-03-07T16:29:19.535Z,4.73
2023-03-07T16:31:46.997Z,4.72
2023-03-07T16:34:21.805Z,4.68
2023-03-07T16:36:48.289Z,4.69
2023-03-07T16:39:15.685Z,4.65
2023-03-07T16:41:49.506Z,4.63
2023-03-07T16:44:18.395Z,4.62
2023-03-07T16:46:50.426Z,4.59
2023-03-07T16:49:20.075Z,4.57
2023-03-07T16:51:53.307Z,4.53
2023-03-07T16:54:26.043Z,4.46
2023-03-07T16:56:55.108Z,4.39
2023-03-07T16:59:24.187Z,4.33
2023-03-07T17:01:53.471Z,4.25
2023-03-07T17:04:20.289Z,4.17
2023-03-07T17:06:50.563Z,4.12
2023-03-07T17:09:24.173Z,4.05
2023-03-07T17:11:51.612Z,4.00
2023-03-07T17:14:19.400Z,3.97
2023-03-07T17:16:47.966Z,3.91
2023-03-07T17:19:26.430Z,3.83
2023-03-07T17:21:53.072Z,3.83
2023-03-07T17:24:19.795Z,3.77
2023-03-07T17:26:46.728Z,3.75
2023-03-07T17:29:21.990Z,3.71
2023-03-07T17:31:48.352Z,3.72
2023-03-07T17:34:23.500Z,3.68
2023-03-07T17:36:49.918Z,3.70
2023-03-07T17:39:16.293Z,3.70
2023-03-07T17:41:42.640Z,3.71
2023-03-07T17:44:09.026Z,3.70
2023-03-07T17:46:35.547Z,3.73
2023-03-07T17:49:01.926Z,3.72
2023-03-07T17:51:28.294Z,3.74
2023-03-07T17:53:54.677Z,3.75
2023-03-07T17:56:21.070Z,3.76
2023-03-07T17:58:47.412Z,3.77
2023-03-07T18:01:15.064Z,3.78
2023-03-07T18:03:42.194Z,3.80
2023-03-07T18:06:09.308Z,3.80
2023-03-07T18:08:37.132Z,3.79
2023-03-07T18:11:08.862Z,3.77
2023-03-07T18:13:35.840Z,3.77
2023-03-07T18:16:02.202Z,3.80
2023-03-07T18:18:33.834Z,3.75
2023-03-07T18:21:03.515Z,3.76
2023-03-07T18:23:29.847Z,3.75
2023-03-07T18:26:08.987Z,3.70
2023-03-07T18:28:38.076Z,3.73
2023-03-07T18:31:07.605Z,3.72
2023-03-07T18:33:35.208Z,3.72
2023-03-07T18:36:02.015Z,3.71
2023-03-07T18:38:28.365Z,3.71
2023-03-07T18:41:15.370Z,3.68
2023-03-07T18:43:42.277Z,3.71
2023-03-07T18:46:12.051Z,3.72
2023-03-07T18:48:38.409Z,3.70
2023-03-07T18:51:09.569Z,3.70
2023-03-07T18:57:04.149Z,3.65
2023-03-07T18:59:15.930Z,3.64
2023-03-07T19:03:39.794Z,3.65
2023-03-07T19:05:01.224Z,3.65
2023-03-07T19:07:40.473Z,3.67
2023-03-07T19:10:17.100Z,3.68
2023-03-07T19:12:47.633Z,3.68
2023-03-07T19:15:26.800Z,3.70
2023-03-07T19:17:58.124Z,3.70
2023-03-07T19:20:26.275Z,3.72
2023-03-07T19:22:55.066Z,3.72
2023-03-07T19:25:31.966Z,3.73
2023-03-07T19:27:58.457Z,3.73
2023-03-07T19:30:25.051Z,3.74
2023-03-07T19:32:51.632Z,3.75
2023-03-07T19:35:18.227Z,3.74
2023-03-07T19:37:44.821Z,3.73
2023-03-07T19:40:12.372Z,3.71
2023-03-07T19:42:40.824Z,3.69
2023-03-07T19:45:11.108Z,3.70
2023-03-07T19:47:40.150Z,3.67
2023-03-07T19:50:09.565Z,3.70
2023-03-07T19:52:40.897Z,3.71
2023-03-07T19:55:13.927Z,3.73
2023-03-07T19:57:41.342Z,3.74
2023-03-07T20:00:11.108Z,3.75
2023-03-07T20:02:39.900Z,3.75
2023-03-07T20:05:08.162Z,3.76
2023-03-07T20:07:37.236Z,3.77
2023-03-07T20:10:03.990Z,3.76
2023-03-07T20:12:33.900Z,3.77
2023-03-07T20:15:00.435Z,3.77
2023-03-07T20:17:29.270Z,3.80
2023-03-07T20:19:57.695Z,3.80
2023-03-07T20:22:24.521Z,3.80
2023-03-07T20:24:52.520Z,3.79
2023-03-07T20:27:22.987Z,3.80
2023-03-07T20:29:49.539Z,3.80
2023-03-07T20:32:19.442Z,3.81
2023-03-07T20:34:48.754Z,3.80
2023-03-07T20:37:15.197Z,3.82
2023-03-07T20:39:41.695Z,3.82
2023-03-07T20:42:10.399Z,3.83
2023-03-07T20:44:40.300Z,3.82
2023-03-07T20:47:09.261Z,3.83
2023-03-07T20:49:35.963Z,3.80
2023-03-07T20:52:03.805Z,3.76
2023-03-07T20:54:33.460Z,3.72
2023-03-07T20:57:04.316Z,3.68
2023-03-07T20:59:30.905Z,3.62
2023-03-07T21:01:57.490Z,3.57
2023-03-07T21:04:24.237Z,3.54
2023-03-07T21:06:50.990Z,3.48
2023-03-07T21:09:18.107Z,3.44
2023-03-07T21:11:46.761Z,3.39
2023-03-07T21:14:14.771Z,3.36
2023-03-07T21:16:42.980Z,3.34
2023-03-07T21:19:13.349Z,3.33
2023-03-07T21:21:40.412Z,3.33
2023-03-07T21:24:07.365Z,3.34
2023-03-07T21:26:36.259Z,3.34
2023-03-07T21:29:03.849Z,3.35
2023-03-07T21:31:32.170Z,3.34
2023-03-07T21:34:03.558Z,3.33
2023-03-07T21:36:32.890Z,3.35
2023-03-07T21:38:59.753Z,3.36
2023-03-07T21:41:29.244Z,3.34
2023-03-07T21:43:57.015Z,3.33
2023-03-07T21:46:24.467Z,3.31
2023-03-07T21:48:53.731Z,3.29
2023-03-07T21:51:20.991Z,3.26
2023-03-07T21:53:47.447Z,3.25
2023-03-07T21:56:18.768Z,3.22
2023-03-07T21:58:50.041Z,3.20
2023-03-07T22:01:28.591Z,3.19
2023-03-07T22:03:58.641Z,3.19
2023-03-07T22:06:28.900Z,3.21
2023-03-07T22:08:55.417Z,3.20
2023-03-07T22:11:22.202Z,3.20
2023-03-07T22:13:48.832Z,3.22
2023-03-07T22:16:17.764Z,3.22
2023-03-07T22:18:44.325Z,3.23
2023-03-07T22:21:17.099Z,3.25
2023-03-07T22:23:43.932Z,3.26
2023-03-07T22:26:11.746Z,3.25
2023-03-07T22:28:40.529Z,3.25
2023-03-07T22:31:09.963Z,3.25
2023-03-07T22:33:36.765Z,3.24
2023-03-07T22:36:07.379Z,3.23
2023-03-07T22:38:38.007Z,3.24
2023-03-07T22:41:07.532Z,3.23
2023-03-07T22:43:39.315Z,3.24
2023-03-07T22:46:09.544Z,3.28
2023-03-07T22:48:36.474Z,3.30
2023-03-07T22:51:03.702Z,3.32
2023-03-07T22:53:31.720Z,3.33
2023-03-07T22:55:59.362Z,3.34
2023-03-07T22:58:27.622Z,3.34
2023-03-07T23:00:54.250Z,3.34
2023-03-07T23:03:20.859Z,3.31
2023-03-07T23:05:47.429Z,3.29
2023-03-07T23:08:15.904Z,3.26
2023-03-07T23:10:44.925Z,3.28
2023-03-07T23:13:15.083Z,3.25
2023-03-07T23:15:42.614Z,3.25
2023-03-07T23:18:09.534Z,3.24
2023-03-07T23:20:41.075Z,3.23
2023-03-07T23:23:09.829Z,3.23
2023-03-07T23:25:42.731Z,3.18
2023-03-07T23:28:09.762Z,3.17
2023-03-07T23:30:37.408Z,3.18
2023-03-07T23:33:03.979Z,3.12
2023-03-07T23:35:33.370Z,3.07
2023-03-07T23:37:59.992Z,3.05
2023-03-07T23:40:28.069Z,3.03
2023-03-07T23:42:55.383Z,2.99
2023-03-07T23:45:22.363Z,2.98
2023-03-07T23:47:49.005Z,2.97
2023-03-07T23:50:16.036Z,2.95
2023-03-07T23:52:42.866Z,2.94
2023-03-07T23:55:11.432Z,2.94
2023-03-07T23:57:39.606Z,2.93
